createdAt,value
2019-05-02T00:00:32.713Z,7.30
2019-05-02T00:03:35.902Z,7.20
2019-05-02T00:06:37.988Z,7.10
2019-05-02T00:09:47.190Z,7.10
2019-05-02T00:12:44.466Z,7.10
2019-05-02T00:15:47.650Z,7.10
2019-05-02T00:18:49.234Z,7.10
2019-05-02T00:21:50.515Z,7.00
2019-05-02T00:24:51.823Z,7.10
2019-05-02T00:27:53.235Z,7.10
2019-05-02T00:30:56.201Z,7.20
2019-05-02T00:33:57.498Z,7.30
2019-05-02T00:36:58.787Z,7.50
2019-05-02T00:40:25.284Z,7.70
2019-05-02T00:43:23.213Z,7.30
2019-05-02T00:46:24.709Z,7.80
2019-05-02T00:49:25.994Z,7.70
2019-05-02T00:52:27.764Z,7.70
2019-05-02T00:55:33.768Z,7.60
2019-05-02T00:58:33.112Z,7.60
2019-05-02T01:01:42.405Z,7.70
2019-05-02T01:04:45.774Z,7.70
2019-05-02T01:07:47.053Z,7.60
2019-05-02T01:10:52.162Z,7.50
2019-05-02T01:13:55.749Z,7.40
2019-05-02T01:16:56.243Z,7.30
2019-05-02T01:19:57.575Z,7.20
2019-05-02T01:22:59.281Z,7.10
2019-05-02T01:26:00.557Z,7.00
2019-05-02T01:29:12.962Z,6.90
2019-05-02T01:32:17.405Z,6.90
2019-05-02T01:35:27.060Z,6.80
2019-05-02T01:38:31.715Z,6.80
2019-05-02T01:41:32.862Z,6.80
2019-05-02T01:44:36.494Z,6.80
2019-05-02T01:47:37.599Z,6.80
2019-05-02T01:50:38.866Z,6.80
2019-05-02T01:53:40.658Z,6.80
2019-05-02T01:56:41.929Z,6.80
2019-05-02T01:59:43.409Z,6.90
2019-05-02T02:02:44.677Z,7.00
2019-05-02T02:05:47.077Z,7.30
2019-05-02T02:08:48.358Z,7.50
2019-05-02T02:11:49.843Z,7.60
2019-05-02T02:14:53.462Z,7.80
2019-05-02T02:17:54.406Z,8.00
2019-05-02T02:21:14.489Z,8.10
2019-05-02T02:24:25.229Z,8.20
2019-05-02T02:27:27.125Z,8.30
2019-05-02T02:30:28.673Z,8.40
2019-05-02T02:33:29.946Z,8.60
2019-05-02T02:36:34.531Z,8.70
2019-05-02T02:39:34.380Z,8.80
2019-05-02T02:42:35.793Z,8.90
2019-05-02T02:45:41.290Z,9.00
2019-05-02T02:48:42.947Z,9.00
2019-05-02T02:51:44.240Z,9.10
2019-05-02T02:54:45.713Z,9.20
2019-05-02T02:57:46.987Z,9.20
2019-05-02T03:00:49.376Z,9.20
2019-05-02T03:03:50.790Z,9.20
2019-05-02T03:06:54.066Z,9.20
2019-05-02T03:09:59.690Z,9.20
2019-05-02T03:13:21.697Z,9.20
2019-05-02T03:16:22.560Z,9.10
2019-05-02T03:19:24.049Z,9.10
2019-05-02T03:22:25.384Z,9.00
2019-05-02T03:25:49.346Z,9.00
2019-05-02T03:28:30.241Z,9.00
2019-05-02T03:31:31.805Z,9.00
2019-05-02T03:34:47.148Z,9.10
2019-05-02T03:37:36.597Z,9.10
2019-05-02T03:40:39.060Z,9.10
2019-05-02T03:43:41.171Z,9.10
2019-05-02T03:46:42.915Z,9.10
2019-05-02T03:49:48.816Z,9.20
2019-05-02T03:52:47.736Z,9.20
2019-05-02T03:55:49.010Z,9.10
2019-05-02T03:58:55.910Z,9.10
2019-05-02T04:01:53.600Z,9.10
2019-05-02T04:05:00.501Z,9.20
2019-05-02T04:08:00.687Z,9.20
2019-05-02T04:11:16.745Z,9.30
2019-05-02T04:14:36.624Z,9.40
2019-05-02T04:17:21.433Z,9.50
2019-05-02T04:20:22.747Z,9.60
2019-05-02T04:23:27.708Z,9.70
2019-05-02T04:26:27.628Z,9.80
2019-05-02T04:29:31.193Z,9.80
2019-05-02T04:32:32.190Z,9.90
2019-05-02T04:35:34.927Z,10.00
2019-05-02T04:38:44.455Z,10.00
2019-05-02T04:41:42.380Z,10.10
2019-05-02T04:45:07.644Z,10.20
2019-05-02T04:47:54.540Z,10.30
2019-05-02T04:50:51.762Z,10.30
2019-05-02T04:53:53.205Z,10.30
2019-05-02T04:57:14.416Z,10.40
2019-05-02T05:00:19.743Z,10.40
2019-05-02T05:03:21.295Z,10.50
2019-05-02T05:06:22.886Z,10.50
2019-05-02T05:09:24.156Z,10.60
2019-05-02T05:12:27.739Z,10.60
2019-05-02T05:15:38.339Z,10.70
2019-05-02T05:18:32.235Z,10.70
2019-05-02T05:21:33.673Z,10.80
2019-05-02T05:24:42.367Z,10.90
2019-05-02T05:27:43.243Z,11.10
2019-05-02T05:30:45.517Z,11.20
2019-05-02T05:33:47.947Z,11.30
2019-05-02T05:36:49.444Z,11.30
2019-05-02T05:39:52.520Z,11.40
2019-05-02T05:42:54.718Z,11.60
2019-05-02T05:46:09.161Z,11.70
2019-05-02T05:49:00.419Z,11.80
2019-05-02T05:52:03.816Z,11.80
2019-05-02T05:55:05.348Z,11.90
2019-05-02T05:58:14.652Z,12.10
2019-05-02T06:01:10.410Z,12.40
2019-05-02T06:04:13.953Z,12.60
2019-05-02T06:07:17.644Z,12.50
2019-05-02T06:10:19.121Z,12.60
2019-05-02T06:13:20.717Z,12.70
2019-05-02T06:16:22.096Z,12.60
2019-05-02T06:19:23.635Z,12.50
2019-05-02T06:22:25.679Z,12.60
2019-05-02T06:25:34.052Z,12.50
2019-05-02T06:28:31.146Z,12.30
2019-05-02T06:31:32.638Z,12.60
2019-05-02T06:34:38.742Z,12.60
2019-05-02T06:37:40.320Z,12.70
2019-05-02T06:40:44.822Z,12.70
2019-05-02T06:43:46.545Z,12.50
2019-05-02T06:46:47.706Z,12.40
2019-05-02T06:49:49.226Z,12.50
2019-05-02T06:52:51.572Z,12.50
2019-05-02T06:55:53.506Z,12.60
2019-05-02T06:58:55.101Z,12.90
2019-05-02T07:01:58.674Z,12.90
2019-05-02T07:05:00.231Z,13.00
2019-05-02T07:08:06.671Z,13.20
2019-05-02T07:11:06.358Z,13.10
2019-05-02T07:14:13.323Z,13.00
2019-05-02T07:17:32.038Z,13.10
2019-05-02T07:20:35.191Z,13.10
2019-05-02T07:23:36.786Z,13.30
2019-05-02T07:26:38.485Z,13.50
2019-05-02T07:29:40.200Z,13.60
2019-05-02T07:32:41.487Z,13.90
2019-05-02T07:35:42.963Z,14.00
2019-05-02T07:38:44.256Z,14.20
2019-05-02T07:41:46.200Z,14.10
2019-05-02T07:44:48.213Z,14.20
2019-05-02T07:47:50.452Z,14.10
2019-05-02T07:50:52.096Z,14.20
2019-05-02T07:53:55.668Z,14.30
2019-05-02T07:56:57.401Z,14.30
2019-05-02T08:00:00.446Z,14.50
2019-05-02T08:03:04.976Z,14.60
2019-05-02T08:06:06.235Z,14.40
2019-05-02T08:09:09.210Z,14.30
2019-05-02T08:12:11.509Z,14.20
2019-05-02T08:15:15.285Z,14.10
2019-05-02T08:18:17.001Z,14.20
2019-05-02T08:21:18.490Z,13.90
2019-05-02T08:24:20.430Z,14.00
2019-05-02T08:27:24.054Z,14.10
2019-05-02T08:30:27.363Z,14.30
2019-05-02T08:33:34.380Z,14.60
2019-05-02T08:36:32.217Z,14.70
2019-05-02T08:39:35.165Z,14.60
2019-05-02T08:42:37.477Z,14.70
2019-05-02T08:45:39.635Z,14.50
2019-05-02T08:48:43.636Z,14.50
2019-05-02T08:51:45.362Z,14.60
2019-05-02T08:54:46.770Z,14.90
2019-05-02T08:57:48.386Z,15.10
2019-05-02T09:00:49.814Z,15.10
2019-05-02T09:03:56.572Z,15.20
2019-05-02T09:06:58.876Z,15.10
2019-05-02T09:10:00.174Z,15.10
2019-05-02T09:13:02.650Z,15.10
2019-05-02T09:16:06.070Z,15.30
2019-05-02T09:19:07.358Z,15.30
2019-05-02T09:22:13.242Z,15.30
2019-05-02T09:25:12.581Z,15.40
2019-05-02T09:28:17.048Z,15.50
2019-05-02T09:31:17.766Z,15.80
2019-05-02T09:34:22.665Z,15.90
2019-05-02T09:37:22.761Z,15.80
2019-05-02T09:40:24.366Z,15.80
2019-05-02T09:43:29.372Z,15.80
2019-05-02T09:46:28.928Z,16.00
2019-05-02T09:49:32.454Z,16.10
2019-05-02T09:52:39.763Z,16.10
2019-05-02T09:55:42.338Z,15.80
2019-05-02T09:58:42.580Z,16.10
2019-05-02T10:01:43.965Z,16.00
2019-05-02T10:04:45.563Z,16.10
2019-05-02T10:07:48.554Z,16.20
2019-05-02T10:10:52.040Z,16.50
2019-05-02T10:13:55.393Z,16.90
2019-05-02T10:16:57.604Z,16.90
2019-05-02T10:20:01.876Z,16.90
2019-05-02T10:23:03.263Z,17.20
2019-05-02T10:26:05.218Z,17.40
2019-05-02T10:29:07.178Z,17.30
2019-05-02T10:32:15.038Z,17.30
2019-05-02T10:35:13.805Z,17.60
2019-05-02T10:38:19.379Z,17.50
2019-05-02T10:41:19.623Z,17.40
2019-05-02T10:44:22.557Z,17.20
2019-05-02T10:47:24.240Z,17.50
2019-05-02T10:50:27.852Z,17.70
2019-05-02T10:53:29.805Z,17.60
2019-05-02T10:56:32.445Z,17.80
2019-05-02T10:59:34.055Z,18.00
2019-05-02T11:02:46.265Z,18.00
2019-05-02T11:05:49.893Z,18.00
2019-05-02T11:08:52.487Z,18.30
2019-05-02T11:11:55.101Z,18.80
2019-05-02T11:15:10.335Z,19.00
2019-05-02T11:18:12.661Z,19.20
2019-05-02T11:21:14.606Z,19.40
2019-05-02T11:24:16.079Z,19.40
2019-05-02T11:27:17.618Z,20.00
2019-05-02T11:30:24.931Z,20.50
2019-05-02T11:33:22.935Z,20.10
2019-05-02T11:36:27.391Z,20.50
2019-05-02T11:39:35.770Z,20.30
2019-05-02T11:42:32.323Z,20.10
2019-05-02T11:45:34.338Z,20.30
2019-05-02T11:48:35.626Z,20.60
2019-05-02T11:51:37.395Z,20.60
2019-05-02T11:54:39.212Z,21.20
2019-05-02T11:57:42.575Z,20.90
2019-05-02T12:00:49.333Z,21.40
2019-05-02T12:03:49.573Z,22.40
2019-05-02T12:07:00.921Z,22.50
2019-05-02T12:09:57.020Z,22.70
2019-05-02T12:12:58.803Z,22.90
2019-05-02T12:16:00.291Z,23.30
2019-05-02T12:19:11.762Z,23.10
2019-05-02T12:22:11.968Z,23.00
2019-05-02T12:25:12.460Z,22.60
2019-05-02T12:28:13.924Z,21.90
2019-05-02T12:31:27.858Z,22.10
2019-05-02T12:34:29.435Z,22.30
2019-05-02T12:37:32.618Z,22.10
2019-05-02T12:40:34.062Z,21.80
2019-05-02T12:43:35.444Z,20.80
2019-05-02T12:46:36.859Z,20.30
2019-05-02T12:49:38.443Z,20.50
2019-05-02T12:52:39.833Z,21.00
2019-05-02T12:55:42.126Z,20.70
2019-05-02T12:58:43.630Z,20.60
2019-05-02T13:01:45.129Z,20.70
2019-05-02T13:04:46.804Z,21.20
2019-05-02T13:07:50.381Z,22.00
2019-05-02T13:11:06.646Z,22.50
2019-05-02T13:14:15.916Z,22.40
2019-05-02T13:17:11.860Z,22.60
2019-05-02T13:20:14.749Z,22.10
2019-05-02T13:23:22.444Z,21.90
2019-05-02T13:26:27.140Z,22.10
2019-05-02T13:29:26.988Z,22.40
2019-05-02T13:32:33.382Z,22.30
2019-05-02T13:35:36.590Z,22.00
2019-05-02T13:38:37.940Z,21.80
2019-05-02T13:41:39.352Z,22.00
2019-05-02T13:44:48.681Z,22.30
2019-05-02T13:47:51.895Z,22.00
2019-05-02T13:50:53.501Z,22.10
2019-05-02T13:53:56.691Z,21.90
2019-05-02T13:56:58.285Z,21.70
2019-05-02T13:59:59.553Z,22.40
2019-05-02T14:03:02.861Z,22.40
2019-05-02T14:06:04.237Z,22.90
2019-05-02T14:09:16.978Z,22.80
2019-05-02T14:12:19.447Z,21.90
2019-05-02T14:15:22.851Z,21.70
2019-05-02T14:18:29.132Z,22.00
2019-05-02T14:21:27.525Z,22.20
2019-05-02T14:24:28.929Z,22.70
2019-05-02T14:27:32.052Z,22.80
2019-05-02T14:30:39.367Z,22.70
2019-05-02T14:33:42.301Z,23.20
2019-05-02T14:36:44.035Z,22.80
2019-05-02T14:39:47.228Z,22.80
2019-05-02T14:42:48.505Z,22.70
2019-05-02T14:45:50.922Z,22.60
2019-05-02T14:48:53.198Z,22.50
2019-05-02T14:51:57.192Z,23.00
2019-05-02T14:54:57.970Z,23.30
2019-05-02T14:58:02.172Z,23.00
2019-05-02T15:01:03.290Z,23.70
2019-05-02T15:04:08.257Z,24.70
2019-05-02T15:07:08.568Z,25.00
2019-05-02T15:10:10.145Z,24.20
2019-05-02T15:13:36.399Z,24.20
2019-05-02T15:16:42.262Z,24.10
2019-05-02T15:19:39.542Z,24.60
2019-05-02T15:22:42.509Z,24.60
2019-05-02T15:25:47.119Z,25.00
2019-05-02T15:28:47.189Z,25.50
2019-05-02T15:32:13.653Z,24.40
2019-05-02T15:35:31.941Z,24.70
2019-05-02T15:38:37.271Z,25.10
2019-05-02T15:41:39.903Z,25.10
2019-05-02T15:44:40.154Z,24.60
2019-05-02T15:47:43.041Z,24.90
2019-05-02T15:50:50.113Z,24.90
2019-05-02T15:54:05.991Z,25.20
2019-05-02T15:57:05.894Z,26.10
2019-05-02T16:00:09.163Z,25.80
2019-05-02T16:03:12.218Z,25.70
2019-05-02T16:06:16.335Z,25.90
2019-05-02T16:09:16.870Z,25.30
2019-05-02T16:12:18.266Z,24.30
2019-05-02T16:15:24.645Z,25.10
2019-05-02T16:18:23.646Z,25.80
2019-05-02T16:21:42.695Z,25.80
2019-05-02T16:24:48.781Z,25.10
2019-05-02T16:27:48.591Z,25.40
2019-05-02T16:30:52.607Z,25.30
2019-05-02T16:33:57.416Z,24.90
2019-05-02T16:37:13.288Z,24.80
2019-05-02T16:40:14.677Z,24.60
2019-05-02T16:43:16.065Z,24.00
2019-05-02T16:46:18.239Z,23.90
2019-05-02T16:49:19.561Z,22.70
2019-05-02T16:52:22.145Z,21.80
2019-05-02T16:55:26.540Z,20.40
2019-05-02T16:58:27.306Z,19.50
2019-05-02T17:01:28.685Z,19.00
2019-05-02T17:04:31.942Z,18.70
2019-05-02T17:07:42.901Z,18.30
2019-05-02T17:10:47.247Z,17.80
2019-05-02T17:13:49.513Z,17.40
2019-05-02T17:16:52.343Z,16.90
2019-05-02T17:19:54.624Z,16.50
2019-05-02T17:23:01.866Z,16.30
2019-05-02T17:26:01.456Z,16.00
2019-05-02T17:29:03.644Z,15.70
2019-05-02T17:32:05.335Z,15.50
2019-05-02T17:35:09.930Z,15.20
2019-05-02T17:38:12.023Z,15.00
2019-05-02T17:41:13.962Z,14.90
2019-05-02T17:44:18.525Z,14.60
2019-05-02T17:47:19.396Z,14.50
2019-05-02T17:50:22.824Z,14.30
2019-05-02T17:53:24.621Z,14.10
2019-05-02T17:56:26.257Z,13.80
2019-05-02T17:59:33.015Z,13.60
2019-05-02T18:02:31.702Z,13.30
2019-05-02T18:05:35.661Z,13.20
2019-05-02T18:08:37.536Z,13.00
2019-05-02T18:11:38.925Z,12.70
2019-05-02T18:14:42.186Z,12.50
2019-05-02T18:17:43.877Z,12.30
2019-05-02T18:20:46.634Z,12.00
2019-05-02T18:23:47.925Z,11.80
2019-05-02T18:26:51.578Z,11.70
2019-05-02T18:29:53.237Z,11.50
2019-05-02T18:32:57.773Z,11.40
2019-05-02T18:35:58.109Z,11.30
2019-05-02T18:39:01.610Z,11.10
2019-05-02T18:42:03.414Z,10.90
2019-05-02T18:45:07.966Z,10.80
2019-05-02T18:48:09.435Z,10.70
2019-05-02T18:51:10.907Z,10.50
2019-05-02T18:54:12.454Z,10.40
2019-05-02T18:57:17.189Z,10.30
2019-05-02T19:00:17.426Z,10.20
2019-05-02T19:03:18.859Z,10.00
2019-05-02T19:06:21.889Z,9.90
2019-05-02T19:09:29.830Z,9.80
2019-05-02T19:12:26.747Z,10.00
2019-05-02T19:15:28.085Z,10.20
2019-05-02T19:18:29.585Z,10.30
2019-05-02T19:21:34.393Z,10.20
2019-05-02T19:24:36.503Z,10.10
2019-05-02T19:27:52.152Z,10.00
2019-05-02T19:30:57.389Z,9.90
2019-05-02T19:34:00.044Z,9.80
2019-05-02T19:37:02.975Z,9.70
2019-05-02T19:40:07.038Z,9.60
2019-05-02T19:43:08.518Z,9.50
2019-05-02T19:46:11.986Z,9.30
2019-05-02T19:49:16.208Z,9.10
2019-05-02T19:52:17.198Z,9.00
2019-05-02T19:55:20.080Z,8.80
2019-05-02T19:58:22.313Z,8.60
2019-05-02T20:01:26.540Z,8.50
2019-05-02T20:04:26.959Z,8.30
2019-05-02T20:07:28.430Z,8.20
2019-05-02T20:10:32.303Z,8.20
2019-05-02T20:13:35.253Z,8.10
2019-05-02T20:16:45.694Z,8.00
2019-05-02T20:19:47.316Z,8.00
2019-05-02T20:22:49.623Z,7.90
2019-05-02T20:25:52.427Z,7.80
2019-05-02T20:28:53.997Z,7.80
2019-05-02T20:31:55.483Z,7.70
2019-05-02T20:34:57.600Z,7.70
2019-05-02T20:37:59.340Z,7.60
2019-05-02T20:41:02.757Z,7.50
2019-05-02T20:44:04.598Z,7.50
2019-05-02T20:47:06.054Z,7.40
2019-05-02T20:50:07.583Z,7.40
2019-05-02T20:53:12.006Z,7.30
2019-05-02T20:56:12.655Z,7.20
2019-05-02T20:59:14.095Z,7.10
2019-05-02T21:02:15.542Z,7.10
2019-05-02T21:05:19.714Z,7.00
2019-05-02T21:08:38.218Z,7.00
2019-05-02T21:11:43.216Z,7.00
2019-05-02T21:14:44.729Z,6.90
2019-05-02T21:17:46.353Z,6.80
2019-05-02T21:20:48.318Z,6.70
2019-05-02T21:23:52.789Z,6.60
2019-05-02T21:26:53.849Z,6.60
2019-05-02T21:29:55.121Z,6.50
2019-05-02T21:32:56.886Z,6.50
2019-05-02T21:35:58.281Z,6.40
2019-05-02T21:38:59.822Z,6.50
2019-05-02T21:42:02.333Z,6.40
2019-05-02T21:45:04.818Z,6.40
2019-05-02T21:48:06.226Z,6.30
2019-05-02T21:51:18.905Z,6.30
2019-05-02T21:54:38.717Z,6.30
2019-05-02T21:57:40.553Z,6.30
2019-05-02T22:00:46.481Z,6.20
2019-05-02T22:03:47.877Z,6.20
2019-05-02T22:06:49.350Z,6.20
2019-05-02T22:09:52.408Z,6.20
2019-05-02T22:12:54.066Z,6.20
2019-05-02T22:15:55.384Z,6.30
2019-05-02T22:18:57.276Z,6.40
2019-05-02T22:21:58.566Z,6.50
2019-05-02T22:25:02.240Z,6.50
2019-05-02T22:28:03.648Z,6.50
2019-05-02T22:31:05.113Z,6.40
2019-05-02T22:34:06.525Z,6.40
2019-05-02T22:37:09.930Z,6.50
2019-05-02T22:40:16.101Z,6.50
2019-05-02T22:43:17.573Z,6.50
2019-05-02T22:46:37.693Z,6.60
2019-05-02T22:49:39.186Z,6.70
2019-05-02T22:52:41.622Z,6.70
2019-05-02T22:55:44.839Z,6.70
2019-05-02T22:58:46.108Z,6.70
2019-05-02T23:01:47.779Z,6.60
2019-05-02T23:04:49.174Z,6.60
2019-05-02T23:07:52.643Z,6.60
2019-05-02T23:10:53.829Z,6.40
2019-05-02T23:13:55.432Z,6.40
2019-05-02T23:16:56.733Z,6.20
2019-05-02T23:19:58.135Z,6.10
2019-05-02T23:22:59.525Z,6.10
2019-05-02T23:26:03.137Z,6.10
2019-05-02T23:29:07.005Z,6.10
2019-05-02T23:32:08.573Z,6.10
2019-05-02T23:35:09.887Z,6.10
2019-05-02T23:38:12.596Z,6.10
2019-05-02T23:41:13.985Z,6.00
2019-05-02T23:44:15.718Z,6.10
2019-05-02T23:47:17.038Z,6.00
2019-05-02T23:50:18.629Z,5.90
2019-05-02T23:53:22.008Z,6.00
2019-05-02T23:56:23.176Z,5.90
2019-05-02T23:59:24.568Z,5.90
